Terminal Aerodrome Forecast
Issued by NWS

Home | Current Version | Previous Version | Text Only | Print | Product List | Glossary On
Versions: 1 2 3 4 5 6 7 8 9 10 11 12 13 14 15 16 17
000
FTUS41 KBGM 292325
TAFITH
TAF
KITH 292325Z 3000/3024 18005KT P6SM SKC
     FM300100 16005KT P6SM SCT120 BKN200
     FM301200 21007KT P6SM OVC100
      TEMPO 3013/3016 -SHRA OVC040
     FM301700 30010KT P6SM BKN050
     FM302200 30009KT P6SM FEW060=

USA.gov is the U.S. government's official web portal to all federal, state and local government web resources and services.